sensor_id;sensor_type;location;lat;lon;timestamp;P1;durP1;ratioP1;P2;durP2;ratioP2
53927;SDS011;39837;47.630;18.822;2023-10-31T00:01:32;2.15;;;2.05;;
53927;SDS011;39837;47.630;18.822;2023-10-31T00:04:16;2.78;;;2.53;;
53927;SDS011;39837;47.630;18.822;2023-10-31T00:07:00;2.63;;;2.22;;
53927;SDS011;39837;47.630;18.822;2023-10-31T00:09:44;3.03;;;2.60;;
53927;SDS011;39837;47.630;18.822;2023-10-31T00:12:28;2.45;;;2.25;;
53927;SDS011;39837;47.630;18.822;2023-10-31T00:15:12;2.20;;;2.10;;
53927;SDS011;39837;47.630;18.822;2023-10-31T00:17:56;3.03;;;2.45;;
53927;SDS011;39837;47.630;18.822;2023-10-31T00:20:40;3.42;;;2.30;;
53927;SDS011;39837;47.630;18.822;2023-10-31T00:23:24;2.25;;;2.00;;
53927;SDS011;39837;47.630;18.822;2023-10-31T00:26:08;7.82;;;2.85;;
53927;SDS011;39837;47.630;18.822;2023-10-31T00:28:53;3.67;;;2.88;;
53927;SDS011;39837;47.630;18.822;2023-10-31T00:31:37;5.40;;;3.20;;
53927;SDS011;39837;47.630;18.822;2023-10-31T00:34:24;3.88;;;2.95;;
53927;SDS011;39837;47.630;18.822;2023-10-31T00:37:08;4.80;;;2.97;;
53927;SDS011;39837;47.630;18.822;2023-10-31T00:39:52;8.82;;;2.05;;
53927;SDS011;39837;47.630;18.822;2023-10-31T00:42:37;2.53;;;2.33;;
53927;SDS011;39837;47.630;18.822;2023-10-31T00:45:21;2.55;;;2.45;;
53927;SDS011;39837;47.630;18.822;2023-10-31T00:48:05;2.80;;;1.98;;
53927;SDS011;39837;47.630;18.822;2023-10-31T00:50:49;6.25;;;2.22;;
53927;SDS011;39837;47.630;18.822;2023-10-31T00:53:33;2.78;;;2.58;;
53927;SDS011;39837;47.630;18.822;2023-10-31T00:56:17;2.45;;;2.28;;
53927;SDS011;39837;47.630;18.822;2023-10-31T00:59:01;2.95;;;2.72;;
53927;SDS011;39837;47.630;18.822;2023-10-31T01:01:45;4.35;;;2.30;;
53927;SDS011;39837;47.630;18.822;2023-10-31T01:04:29;2.95;;;2.55;;
53927;SDS011;39837;47.630;18.822;2023-10-31T01:07:15;5.53;;;3.75;;
53927;SDS011;39837;47.630;18.822;2023-10-31T01:10:01;3.55;;;3.25;;
53927;SDS011;39837;47.630;18.822;2023-10-31T01:12:45;3.42;;;2.75;;
53927;SDS011;39837;47.630;18.822;2023-10-31T01:15:29;3.55;;;3.03;;
53927;SDS011;39837;47.630;18.822;2023-10-31T01:18:13;3.50;;;3.08;;
53927;SDS011;39837;47.630;18.822;2023-10-31T01:20:57;3.28;;;2.22;;
53927;SDS011;39837;47.630;18.822;2023-10-31T01:23:41;2.50;;;2.30;;
53927;SDS011;39837;47.630;18.822;2023-10-31T01:26:25;3.60;;;2.72;;
53927;SDS011;39837;47.630;18.822;2023-10-31T01:29:09;3.22;;;2.75;;
53927;SDS011;39837;47.630;18.822;2023-10-31T01:31:53;3.00;;;2.72;;
53927;SDS011;39837;47.630;18.822;2023-10-31T01:34:37;9.80;;;3.13;;
53927;SDS011;39837;47.630;18.822;2023-10-31T01:37:21;3.65;;;3.10;;
53927;SDS011;39837;47.630;18.822;2023-10-31T01:40:05;7.07;;;2.80;;
53927;SDS011;39837;47.630;18.822;2023-10-31T01:45:34;3.75;;;3.45;;
53927;SDS011;39837;47.630;18.822;2023-10-31T01:48:19;10.15;;;3.83;;
53927;SDS011;39837;47.630;18.822;2023-10-31T01:51:03;2.85;;;2.65;;
53927;SDS011;39837;47.630;18.822;2023-10-31T01:53:48;3.77;;;2.77;;
53927;SDS011;39837;47.630;18.822;2023-10-31T01:56:32;3.30;;;3.00;;
53927;SDS011;39837;47.630;18.822;2023-10-31T01:59:16;9.55;;;3.90;;
53927;SDS011;39837;47.630;18.822;2023-10-31T02:02:00;6.18;;;3.15;;
53927;SDS011;39837;47.630;18.822;2023-10-31T02:04:44;6.18;;;3.35;;
53927;SDS011;39837;47.630;18.822;2023-10-31T02:07:28;7.35;;;3.25;;
53927;SDS011;39837;47.630;18.822;2023-10-31T02:10:12;3.47;;;2.58;;
53927;SDS011;39837;47.630;18.822;2023-10-31T02:12:56;3.50;;;3.20;;
53927;SDS011;39837;47.630;18.822;2023-10-31T02:15:40;2.58;;;2.38;;
53927;SDS011;39837;47.630;18.822;2023-10-31T02:18:25;2.88;;;2.67;;
53927;SDS011;39837;47.630;18.822;2023-10-31T02:21:09;3.40;;;3.15;;
53927;SDS011;39837;47.630;18.822;2023-10-31T02:23:57;3.03;;;2.72;;
53927;SDS011;39837;47.630;18.822;2023-10-31T02:26:42;4.05;;;2.55;;
53927;SDS011;39837;47.630;18.822;2023-10-31T02:29:26;2.90;;;2.65;;
53927;SDS011;39837;47.630;18.822;2023-10-31T02:32:10;7.13;;;3.83;;
53927;SDS011;39837;47.630;18.822;2023-10-31T02:34:54;3.55;;;2.72;;
53927;SDS011;39837;47.630;18.822;2023-10-31T02:37:38;2.70;;;2.50;;
53927;SDS011;39837;47.630;18.822;2023-10-31T02:40:22;8.32;;;3.13;;
53927;SDS011;39837;47.630;18.822;2023-10-31T02:43:06;3.00;;;2.70;;
53927;SDS011;39837;47.630;18.822;2023-10-31T02:45:50;3.63;;;2.95;;
53927;SDS011;39837;47.630;18.822;2023-10-31T02:48:34;2.85;;;2.65;;
53927;SDS011;39837;47.630;18.822;2023-10-31T02:51:23;6.57;;;3.05;;
53927;SDS011;39837;47.630;18.822;2023-10-31T02:54:07;4.05;;;2.17;;
53927;SDS011;39837;47.630;18.822;2023-10-31T02:56:51;4.13;;;2.67;;
53927;SDS011;39837;47.630;18.822;2023-10-31T02:59:34;4.95;;;4.43;;
53927;SDS011;39837;47.630;18.822;2023-10-31T03:02:19;3.55;;;2.75;;
53927;SDS011;39837;47.630;18.822;2023-10-31T03:05:03;6.65;;;3.00;;
53927;SDS011;39837;47.630;18.822;2023-10-31T03:07:47;5.72;;;3.40;;
53927;SDS011;39837;47.630;18.822;2023-10-31T03:10:31;11.52;;;3.05;;
53927;SDS011;39837;47.630;18.822;2023-10-31T03:13:16;7.47;;;3.30;;
53927;SDS011;39837;47.630;18.822;2023-10-31T03:16:01;4.90;;;3.15;;
53927;SDS011;39837;47.630;18.822;2023-10-31T03:18:45;3.05;;;2.58;;
53927;SDS011;39837;47.630;18.822;2023-10-31T03:21:30;4.00;;;2.53;;
53927;SDS011;39837;47.630;18.822;2023-10-31T03:24:15;4.25;;;2.47;;
53927;SDS011;39837;47.630;18.822;2023-10-31T03:26:59;3.78;;;2.63;;
53927;SDS011;39837;47.630;18.822;2023-10-31T03:29:42;2.55;;;2.28;;
53927;SDS011;39837;47.630;18.822;2023-10-31T03:32:26;1.38;;;1.35;;
53927;SDS011;39837;47.630;18.822;2023-10-31T03:35:10;2.15;;;2.05;;
53927;SDS011;39837;47.630;18.822;2023-10-31T03:37:54;3.58;;;1.80;;
53927;SDS011;39837;47.630;18.822;2023-10-31T03:40:38;2.28;;;2.08;;
53927;SDS011;39837;47.630;18.822;2023-10-31T03:43:24;1.10;;;1.10;;
53927;SDS011;39837;47.630;18.822;2023-10-31T03:46:08;1.38;;;1.38;;
53927;SDS011;39837;47.630;18.822;2023-10-31T03:48:51;0.90;;;0.90;;
53927;SDS011;39837;47.630;18.822;2023-10-31T03:51:35;1.50;;;1.40;;
53927;SDS011;39837;47.630;18.822;2023-10-31T03:54:19;1.63;;;1.50;;
53927;SDS011;39837;47.630;18.822;2023-10-31T03:57:03;2.15;;;2.05;;
53927;SDS011;39837;47.630;18.822;2023-10-31T03:59:48;2.47;;;1.25;;
53927;SDS011;39837;47.630;18.822;2023-10-31T04:02:32;1.33;;;1.23;;
53927;SDS011;39837;47.630;18.822;2023-10-31T04:05:16;0.95;;;0.93;;
53927;SDS011;39837;47.630;18.822;2023-10-31T04:08:01;1.27;;;1.27;;
53927;SDS011;39837;47.630;18.822;2023-10-31T04:10:46;2.78;;;2.03;;
53927;SDS011;39837;47.630;18.822;2023-10-31T04:13:30;4.70;;;3.05;;
53927;SDS011;39837;47.630;18.822;2023-10-31T04:16:14;1.40;;;1.40;;
53927;SDS011;39837;47.630;18.822;2023-10-31T04:18:58;1.50;;;1.40;;
53927;SDS011;39837;47.630;18.822;2023-10-31T04:21:43;13.48;;;1.58;;
53927;SDS011;39837;47.630;18.822;2023-10-31T04:24:28;1.02;;;1.02;;
53927;SDS011;39837;47.630;18.822;2023-10-31T04:27:12;3.38;;;1.88;;
53927;SDS011;39837;47.630;18.822;2023-10-31T04:29:56;1.85;;;1.77;;
53927;SDS011;39837;47.630;18.822;2023-10-31T04:32:40;1.77;;;1.67;;
53927;SDS011;39837;47.630;18.822;2023-10-31T04:35:24;2.13;;;2.00;;
53927;SDS011;39837;47.630;18.822;2023-10-31T04:38:08;1.42;;;1.33;;
53927;SDS011;39837;47.630;18.822;2023-10-31T04:40:52;1.77;;;1.67;;
53927;SDS011;39837;47.630;18.822;2023-10-31T04:43:35;1.60;;;1.35;;
53927;SDS011;39837;47.630;18.822;2023-10-31T04:46:19;2.72;;;2.55;;
53927;SDS011;39837;47.630;18.822;2023-10-31T04:49:03;11.73;;;2.33;;
53927;SDS011;39837;47.630;18.822;2023-10-31T04:51:48;2.50;;;2.30;;
53927;SDS011;39837;47.630;18.822;2023-10-31T04:54:32;2.33;;;2.13;;
53927;SDS011;39837;47.630;18.822;2023-10-31T04:57:16;3.85;;;2.45;;
53927;SDS011;39837;47.630;18.822;2023-10-31T05:00:00;4.53;;;2.88;;
53927;SDS011;39837;47.630;18.822;2023-10-31T05:02:44;3.38;;;1.85;;
53927;SDS011;39837;47.630;18.822;2023-10-31T05:05:28;4.05;;;1.50;;
53927;SDS011;39837;47.630;18.822;2023-10-31T05:08:12;2.03;;;1.92;;
53927;SDS011;39837;47.630;18.822;2023-10-31T05:10:56;2.47;;;2.28;;
53927;SDS011;39837;47.630;18.822;2023-10-31T05:13:41;1.13;;;1.13;;
53927;SDS011;39837;47.630;18.822;2023-10-31T05:16:25;1.95;;;1.77;;
53927;SDS011;39837;47.630;18.822;2023-10-31T05:19:09;12.57;;;1.88;;
53927;SDS011;39837;47.630;18.822;2023-10-31T05:21:54;6.87;;;1.73;;
53927;SDS011;39837;47.630;18.822;2023-10-31T05:24:38;2.10;;;1.90;;
53927;SDS011;39837;47.630;18.822;2023-10-31T05:27:22;1.45;;;1.45;;
53927;SDS011;39837;47.630;18.822;2023-10-31T05:30:06;1.60;;;1.50;;
53927;SDS011;39837;47.630;18.822;2023-10-31T05:32:51;1.17;;;1.17;;
53927;SDS011;39837;47.630;18.822;2023-10-31T05:35:35;3.58;;;1.15;;
53927;SDS011;39837;47.630;18.822;2023-10-31T05:38:19;2.58;;;1.63;;
53927;SDS011;39837;47.630;18.822;2023-10-31T05:41:03;1.92;;;1.60;;
53927;SDS011;39837;47.630;18.822;2023-10-31T05:43:51;1.27;;;1.23;;
53927;SDS011;39837;47.630;18.822;2023-10-31T05:46:39;1.00;;;1.00;;
53927;SDS011;39837;47.630;18.822;2023-10-31T05:49:23;1.05;;;1.05;;
53927;SDS011;39837;47.630;18.822;2023-10-31T05:52:07;1.27;;;1.27;;
53927;SDS011;39837;47.630;18.822;2023-10-31T05:54:52;2.20;;;1.92;;
53927;SDS011;39837;47.630;18.822;2023-10-31T05:57:36;1.75;;;1.05;;
53927;SDS011;39837;47.630;18.822;2023-10-31T06:00:20;1.55;;;1.55;;
53927;SDS011;39837;47.630;18.822;2023-10-31T06:03:04;3.30;;;1.30;;
53927;SDS011;39837;47.630;18.822;2023-10-31T06:05:48;2.00;;;1.55;;
53927;SDS011;39837;47.630;18.822;2023-10-31T06:08:32;2.88;;;1.27;;
53927;SDS011;39837;47.630;18.822;2023-10-31T06:11:17;1.95;;;1.80;;
53927;SDS011;39837;47.630;18.822;2023-10-31T06:14:01;1.60;;;1.50;;
53927;SDS011;39837;47.630;18.822;2023-10-31T06:16:45;3.25;;;1.23;;
53927;SDS011;39837;47.630;18.822;2023-10-31T06:19:32;1.02;;;1.02;;
53927;SDS011;39837;47.630;18.822;2023-10-31T06:22:18;0.98;;;0.98;;
53927;SDS011;39837;47.630;18.822;2023-10-31T06:25:02;0.77;;;0.77;;
53927;SDS011;39837;47.630;18.822;2023-10-31T06:27:46;1.00;;;1.00;;
53927;SDS011;39837;47.630;18.822;2023-10-31T06:30:30;1.85;;;1.35;;
53927;SDS011;39837;47.630;18.822;2023-10-31T06:33:14;0.95;;;0.90;;
53927;SDS011;39837;47.630;18.822;2023-10-31T06:35:58;1.75;;;1.05;;
53927;SDS011;39837;47.630;18.822;2023-10-31T06:38:42;1.08;;;1.08;;
53927;SDS011;39837;47.630;18.822;2023-10-31T06:41:26;0.93;;;0.93;;
53927;SDS011;39837;47.630;18.822;2023-10-31T06:44:10;1.20;;;1.17;;
53927;SDS011;39837;47.630;18.822;2023-10-31T06:46:54;1.00;;;1.00;;
53927;SDS011;39837;47.630;18.822;2023-10-31T06:49:38;1.63;;;1.52;;
53927;SDS011;39837;47.630;18.822;2023-10-31T06:52:23;0.50;;;0.50;;
53927;SDS011;39837;47.630;18.822;2023-10-31T06:55:07;1.58;;;0.95;;
53927;SDS011;39837;47.630;18.822;2023-10-31T06:57:51;1.08;;;1.08;;
53927;SDS011;39837;47.630;18.822;2023-10-31T07:00:35;1.05;;;1.05;;
53927;SDS011;39837;47.630;18.822;2023-10-31T07:03:21;3.90;;;1.25;;
53927;SDS011;39837;47.630;18.822;2023-10-31T07:06:05;0.75;;;0.75;;
53927;SDS011;39837;47.630;18.822;2023-10-31T07:08:49;0.95;;;0.95;;
53927;SDS011;39837;47.630;18.822;2023-10-31T07:11:33;0.82;;;0.82;;
53927;SDS011;39837;47.630;18.822;2023-10-31T07:14:17;5.60;;;0.88;;
53927;SDS011;39837;47.630;18.822;2023-10-31T07:17:01;0.82;;;0.82;;
53927;SDS011;39837;47.630;18.822;2023-10-31T07:19:45;0.75;;;0.75;;
53927;SDS011;39837;47.630;18.822;2023-10-31T07:22:29;3.53;;;1.52;;
53927;SDS011;39837;47.630;18.822;2023-10-31T07:25:13;2.17;;;1.15;;
53927;SDS011;39837;47.630;18.822;2023-10-31T07:27:57;1.27;;;1.25;;
53927;SDS011;39837;47.630;18.822;2023-10-31T07:30:41;0.85;;;0.85;;
53927;SDS011;39837;47.630;18.822;2023-10-31T07:33:25;0.82;;;0.82;;
53927;SDS011;39837;47.630;18.822;2023-10-31T07:36:09;0.98;;;0.98;;
53927;SDS011;39837;47.630;18.822;2023-10-31T07:38:53;1.15;;;1.15;;
53927;SDS011;39837;47.630;18.822;2023-10-31T07:41:37;11.07;;;0.60;;
53927;SDS011;39837;47.630;18.822;2023-10-31T07:44:21;2.47;;;1.15;;
53927;SDS011;39837;47.630;18.822;2023-10-31T07:47:05;14.30;;;1.15;;
53927;SDS011;39837;47.630;18.822;2023-10-31T07:49:49;1.20;;;0.95;;
53927;SDS011;39837;47.630;18.822;2023-10-31T07:52:33;1.13;;;1.13;;
53927;SDS011;39837;47.630;18.822;2023-10-31T07:55:17;0.93;;;0.93;;
53927;SDS011;39837;47.630;18.822;2023-10-31T07:58:01;1.00;;;1.00;;
53927;SDS011;39837;47.630;18.822;2023-10-31T08:00:45;0.88;;;0.88;;
53927;SDS011;39837;47.630;18.822;2023-10-31T08:03:30;2.17;;;1.23;;
53927;SDS011;39837;47.630;18.822;2023-10-31T08:06:14;2.88;;;0.93;;
53927;SDS011;39837;47.630;18.822;2023-10-31T08:08:59;13.30;;;1.52;;
53927;SDS011;39837;47.630;18.822;2023-10-31T08:11:43;0.73;;;0.73;;
53927;SDS011;39837;47.630;18.822;2023-10-31T08:14:27;0.60;;;0.60;;
53927;SDS011;39837;47.630;18.822;2023-10-31T08:17:11;1.55;;;1.38;;
53927;SDS011;39837;47.630;18.822;2023-10-31T08:19:55;1.27;;;1.23;;
53927;SDS011;39837;47.630;18.822;2023-10-31T08:22:39;0.55;;;0.55;;
53927;SDS011;39837;47.630;18.822;2023-10-31T08:25:23;0.98;;;0.98;;
53927;SDS011;39837;47.630;18.822;2023-10-31T08:28:07;0.88;;;0.88;;
53927;SDS011;39837;47.630;18.822;2023-10-31T08:30:51;1.25;;;1.15;;
53927;SDS011;39837;47.630;18.822;2023-10-31T08:33:36;2.17;;;1.57;;
53927;SDS011;39837;47.630;18.822;2023-10-31T08:36:20;1.40;;;1.05;;
53927;SDS011;39837;47.630;18.822;2023-10-31T08:39:03;1.15;;;0.90;;
53927;SDS011;39837;47.630;18.822;2023-10-31T08:41:51;0.55;;;0.55;;
53927;SDS011;39837;47.630;18.822;2023-10-31T08:44:36;0.60;;;0.60;;
53927;SDS011;39837;47.630;18.822;2023-10-31T08:47:21;0.80;;;0.80;;
53927;SDS011;39837;47.630;18.822;2023-10-31T08:50:06;0.80;;;0.80;;
53927;SDS011;39837;47.630;18.822;2023-10-31T08:52:54;1.05;;;0.90;;
53927;SDS011;39837;47.630;18.822;2023-10-31T08:55:38;1.27;;;1.10;;
53927;SDS011;39837;47.630;18.822;2023-10-31T08:58:22;1.23;;;1.23;;
53927;SDS011;39837;47.630;18.822;2023-10-31T09:01:06;0.82;;;0.82;;
53927;SDS011;39837;47.630;18.822;2023-10-31T09:03:50;1.23;;;0.90;;
53927;SDS011;39837;47.630;18.822;2023-10-31T09:06:34;0.90;;;0.88;;
53927;SDS011;39837;47.630;18.822;2023-10-31T09:09:18;0.88;;;0.88;;
53927;SDS011;39837;47.630;18.822;2023-10-31T09:12:02;1.13;;;1.02;;
53927;SDS011;39837;47.630;18.822;2023-10-31T09:14:46;1.17;;;1.17;;
53927;SDS011;39837;47.630;18.822;2023-10-31T09:17:30;1.75;;;1.63;;
53927;SDS011;39837;47.630;18.822;2023-10-31T09:20:14;2.10;;;1.65;;
53927;SDS011;39837;47.630;18.822;2023-10-31T09:22:58;1.45;;;1.23;;
53927;SDS011;39837;47.630;18.822;2023-10-31T09:25:43;1.13;;;1.13;;
53927;SDS011;39837;47.630;18.822;2023-10-31T09:28:29;0.93;;;0.93;;
53927;SDS011;39837;47.630;18.822;2023-10-31T09:31:14;2.72;;;1.73;;
53927;SDS011;39837;47.630;18.822;2023-10-31T09:33:58;1.77;;;0.95;;
53927;SDS011;39837;47.630;18.822;2023-10-31T09:36:42;1.08;;;1.08;;
53927;SDS011;39837;47.630;18.822;2023-10-31T09:39:26;1.10;;;1.10;;
53927;SDS011;39837;47.630;18.822;2023-10-31T09:42:11;1.17;;;1.17;;
53927;SDS011;39837;47.630;18.822;2023-10-31T09:44:55;0.60;;;0.60;;
53927;SDS011;39837;47.630;18.822;2023-10-31T09:47:39;0.88;;;0.88;;
53927;SDS011;39837;47.630;18.822;2023-10-31T09:50:24;1.13;;;1.13;;
53927;SDS011;39837;47.630;18.822;2023-10-31T09:53:08;1.00;;;1.00;;
53927;SDS011;39837;47.630;18.822;2023-10-31T09:55:53;8.98;;;2.20;;
53927;SDS011;39837;47.630;18.822;2023-10-31T09:58:37;1.23;;;1.23;;
53927;SDS011;39837;47.630;18.822;2023-10-31T10:04:07;0.80;;;0.80;;
53927;SDS011;39837;47.630;18.822;2023-10-31T10:06:52;1.35;;;1.30;;
53927;SDS011;39837;47.630;18.822;2023-10-31T10:09:42;2.03;;;1.92;;
53927;SDS011;39837;47.630;18.822;2023-10-31T10:12:26;2.97;;;1.67;;
53927;SDS011;39837;47.630;18.822;2023-10-31T10:15:11;6.50;;;1.55;;
53927;SDS011;39837;47.630;18.822;2023-10-31T10:17:55;2.20;;;2.03;;
53927;SDS011;39837;47.630;18.822;2023-10-31T10:20:53;0.88;;;0.82;;
53927;SDS011;39837;47.630;18.822;2023-10-31T10:23:41;0.68;;;0.68;;
53927;SDS011;39837;47.630;18.822;2023-10-31T10:26:25;1.13;;;0.93;;
53927;SDS011;39837;47.630;18.822;2023-10-31T10:29:09;0.88;;;0.82;;
53927;SDS011;39837;47.630;18.822;2023-10-31T10:31:53;1.02;;;1.02;;
53927;SDS011;39837;47.630;18.822;2023-10-31T10:34:37;1.27;;;1.17;;
53927;SDS011;39837;47.630;18.822;2023-10-31T10:37:21;0.90;;;0.90;;
53927;SDS011;39837;47.630;18.822;2023-10-31T10:40:07;0.75;;;0.75;;
53927;SDS011;39837;47.630;18.822;2023-10-31T10:42:51;0.90;;;0.90;;
53927;SDS011;39837;47.630;18.822;2023-10-31T10:45:42;1.23;;;0.82;;
53927;SDS011;39837;47.630;18.822;2023-10-31T10:48:27;0.80;;;0.80;;
53927;SDS011;39837;47.630;18.822;2023-10-31T10:51:56;2.65;;;1.20;;
53927;SDS011;39837;47.630;18.822;2023-10-31T11:00:25;0.98;;;0.98;;
53927;SDS011;39837;47.630;18.822;2023-10-31T11:03:10;0.63;;;0.63;;
53927;SDS011;39837;47.630;18.822;2023-10-31T11:05:54;3.50;;;1.63;;
53927;SDS011;39837;47.630;18.822;2023-10-31T11:08:39;1.15;;;1.05;;
53927;SDS011;39837;47.630;18.822;2023-10-31T11:11:23;2.10;;;1.27;;
53927;SDS011;39837;47.630;18.822;2023-10-31T11:14:08;1.70;;;1.65;;
53927;SDS011;39837;47.630;18.822;2023-10-31T11:16:53;1.30;;;1.27;;
53927;SDS011;39837;47.630;18.822;2023-10-31T11:19:39;4.50;;;1.23;;
53927;SDS011;39837;47.630;18.822;2023-10-31T11:22:24;2.83;;;1.50;;
53927;SDS011;39837;47.630;18.822;2023-10-31T11:25:08;2.20;;;1.08;;
53927;SDS011;39837;47.630;18.822;2023-10-31T11:27:56;2.38;;;1.58;;
53927;SDS011;39837;47.630;18.822;2023-10-31T11:30:42;1.40;;;1.27;;
53927;SDS011;39837;47.630;18.822;2023-10-31T11:33:29;2.78;;;1.85;;
53927;SDS011;39837;47.630;18.822;2023-10-31T11:36:13;4.05;;;2.42;;
53927;SDS011;39837;47.630;18.822;2023-10-31T11:39:12;3.95;;;2.42;;
53927;SDS011;39837;47.630;18.822;2023-10-31T11:41:57;2.65;;;2.00;;
53927;SDS011;39837;47.630;18.822;2023-10-31T11:47:47;1.33;;;1.30;;
53927;SDS011;39837;47.630;18.822;2023-10-31T11:50:35;2.10;;;1.90;;
53927;SDS011;39837;47.630;18.822;2023-10-31T11:53:20;3.60;;;3.30;;
53927;SDS011;39837;47.630;18.822;2023-10-31T11:56:06;4.40;;;2.17;;
53927;SDS011;39837;47.630;18.822;2023-10-31T12:01:44;1.40;;;1.40;;
53927;SDS011;39837;47.630;18.822;2023-10-31T12:04:30;3.13;;;2.50;;
53927;SDS011;39837;47.630;18.822;2023-10-31T12:07:14;7.30;;;2.38;;
53927;SDS011;39837;47.630;18.822;2023-10-31T12:09:58;2.33;;;2.13;;
53927;SDS011;39837;47.630;18.822;2023-10-31T12:12:42;4.47;;;1.75;;
53927;SDS011;39837;47.630;18.822;2023-10-31T12:15:26;3.17;;;1.98;;
53927;SDS011;39837;47.630;18.822;2023-10-31T12:18:10;1.10;;;1.10;;
53927;SDS011;39837;47.630;18.822;2023-10-31T12:20:55;1.30;;;1.30;;
53927;SDS011;39837;47.630;18.822;2023-10-31T12:23:40;2.00;;;1.90;;
53927;SDS011;39837;47.630;18.822;2023-10-31T12:26:24;2.25;;;2.15;;
53927;SDS011;39837;47.630;18.822;2023-10-31T12:29:11;3.58;;;2.03;;
53927;SDS011;39837;47.630;18.822;2023-10-31T12:34:43;2.53;;;1.95;;
53927;SDS011;39837;47.630;18.822;2023-10-31T12:37:27;2.67;;;2.53;;
53927;SDS011;39837;47.630;18.822;2023-10-31T12:40:15;2.45;;;2.25;;
53927;SDS011;39837;47.630;18.822;2023-10-31T12:43:02;6.40;;;2.38;;
53927;SDS011;39837;47.630;18.822;2023-10-31T12:45:47;3.97;;;2.25;;
53927;SDS011;39837;47.630;18.822;2023-10-31T12:48:31;2.92;;;2.35;;
53927;SDS011;39837;47.630;18.822;2023-10-31T12:51:16;8.30;;;2.20;;
53927;SDS011;39837;47.630;18.822;2023-10-31T12:54:00;5.93;;;4.05;;
53927;SDS011;39837;47.630;18.822;2023-10-31T12:56:44;7.25;;;4.32;;
53927;SDS011;39837;47.630;18.822;2023-10-31T12:59:29;4.82;;;3.17;;
53927;SDS011;39837;47.630;18.822;2023-10-31T13:02:16;13.30;;;2.17;;
53927;SDS011;39837;47.630;18.822;2023-10-31T13:05:09;4.20;;;2.70;;
53927;SDS011;39837;47.630;18.822;2023-10-31T13:07:57;2.17;;;1.95;;
53927;SDS011;39837;47.630;18.822;2023-10-31T13:10:43;2.38;;;2.25;;
53927;SDS011;39837;47.630;18.822;2023-10-31T13:13:27;2.35;;;1.75;;
53927;SDS011;39837;47.630;18.822;2023-10-31T13:16:11;1.80;;;1.60;;
53927;SDS011;39837;47.630;18.822;2023-10-31T13:18:55;2.55;;;1.92;;
53927;SDS011;39837;47.630;18.822;2023-10-31T13:21:39;1.50;;;1.40;;
53927;SDS011;39837;47.630;18.822;2023-10-31T13:24:23;3.45;;;1.60;;
53927;SDS011;39837;47.630;18.822;2023-10-31T13:27:07;1.85;;;1.75;;
53927;SDS011;39837;47.630;18.822;2023-10-31T13:29:52;2.72;;;2.47;;
53927;SDS011;39837;47.630;18.822;2023-10-31T13:32:36;1.38;;;1.23;;
53927;SDS011;39837;47.630;18.822;2023-10-31T13:35:20;1.23;;;1.23;;
53927;SDS011;39837;47.630;18.822;2023-10-31T13:38:04;4.93;;;1.50;;
53927;SDS011;39837;47.630;18.822;2023-10-31T13:40:48;0.82;;;0.82;;
53927;SDS011;39837;47.630;18.822;2023-10-31T13:43:32;0.68;;;0.68;;
53927;SDS011;39837;47.630;18.822;2023-10-31T13:46:16;0.70;;;0.70;;
53927;SDS011;39837;47.630;18.822;2023-10-31T13:49:00;0.70;;;0.70;;
53927;SDS011;39837;47.630;18.822;2023-10-31T13:51:46;1.40;;;1.40;;
53927;SDS011;39837;47.630;18.822;2023-10-31T13:54:30;1.10;;;1.10;;
53927;SDS011;39837;47.630;18.822;2023-10-31T13:57:15;1.30;;;1.30;;
53927;SDS011;39837;47.630;18.822;2023-10-31T13:59:59;0.63;;;0.63;;
53927;SDS011;39837;47.630;18.822;2023-10-31T14:02:43;0.80;;;0.80;;
53927;SDS011;39837;47.630;18.822;2023-10-31T14:05:27;1.48;;;1.40;;
53927;SDS011;39837;47.630;18.822;2023-10-31T14:08:11;1.02;;;1.02;;
53927;SDS011;39837;47.630;18.822;2023-10-31T14:10:55;2.22;;;1.02;;
53927;SDS011;39837;47.630;18.822;2023-10-31T14:13:40;1.77;;;0.90;;
53927;SDS011;39837;47.630;18.822;2023-10-31T14:16:26;1.00;;;1.00;;
53927;SDS011;39837;47.630;18.822;2023-10-31T14:19:10;1.40;;;1.30;;
53927;SDS011;39837;47.630;18.822;2023-10-31T14:21:55;1.90;;;1.80;;
53927;SDS011;39837;47.630;18.822;2023-10-31T14:24:39;1.48;;;1.48;;
53927;SDS011;39837;47.630;18.822;2023-10-31T14:27:24;1.52;;;1.50;;
53927;SDS011;39837;47.630;18.822;2023-10-31T14:30:08;1.17;;;1.17;;
53927;SDS011;39837;47.630;18.822;2023-10-31T14:32:52;1.30;;;1.30;;
53927;SDS011;39837;47.630;18.822;2023-10-31T14:35:37;1.00;;;1.00;;
53927;SDS011;39837;47.630;18.822;2023-10-31T14:38:21;1.48;;;1.48;;
53927;SDS011;39837;47.630;18.822;2023-10-31T14:41:05;1.08;;;0.95;;
53927;SDS011;39837;47.630;18.822;2023-10-31T14:46:35;1.17;;;1.17;;
53927;SDS011;39837;47.630;18.822;2023-10-31T14:49:19;1.20;;;1.20;;
53927;SDS011;39837;47.630;18.822;2023-10-31T14:52:04;1.30;;;1.30;;
53927;SDS011;39837;47.630;18.822;2023-10-31T14:54:50;1.73;;;1.45;;
53927;SDS011;39837;47.630;18.822;2023-10-31T14:57:34;1.67;;;1.63;;
53927;SDS011;39837;47.630;18.822;2023-10-31T15:00:19;1.17;;;1.17;;
53927;SDS011;39837;47.630;18.822;2023-10-31T15:03:03;1.05;;;1.05;;
53927;SDS011;39837;47.630;18.822;2023-10-31T15:05:47;1.25;;;1.25;;
53927;SDS011;39837;47.630;18.822;2023-10-31T15:08:32;1.98;;;1.88;;
53927;SDS011;39837;47.630;18.822;2023-10-31T15:11:16;1.60;;;0.98;;
53927;SDS011;39837;47.630;18.822;2023-10-31T15:14:01;1.17;;;1.17;;
53927;SDS011;39837;47.630;18.822;2023-10-31T15:16:45;1.63;;;1.60;;
53927;SDS011;39837;47.630;18.822;2023-10-31T15:19:30;1.58;;;1.30;;
53927;SDS011;39837;47.630;18.822;2023-10-31T15:22:14;1.17;;;1.08;;
53927;SDS011;39837;47.630;18.822;2023-10-31T15:24:58;0.80;;;0.80;;
53927;SDS011;39837;47.630;18.822;2023-10-31T15:27:42;1.63;;;1.63;;
53927;SDS011;39837;47.630;18.822;2023-10-31T15:30:27;1.42;;;1.30;;
53927;SDS011;39837;47.630;18.822;2023-10-31T15:33:11;1.00;;;1.00;;
53927;SDS011;39837;47.630;18.822;2023-10-31T15:35:55;1.50;;;1.50;;
53927;SDS011;39837;47.630;18.822;2023-10-31T15:38:39;1.33;;;1.33;;
53927;SDS011;39837;47.630;18.822;2023-10-31T15:41:24;1.20;;;1.20;;
53927;SDS011;39837;47.630;18.822;2023-10-31T15:44:08;1.30;;;1.30;;
53927;SDS011;39837;47.630;18.822;2023-10-31T15:46:52;1.02;;;1.02;;
53927;SDS011;39837;47.630;18.822;2023-10-31T15:49:36;1.15;;;1.15;;
53927;SDS011;39837;47.630;18.822;2023-10-31T15:52:21;1.15;;;1.15;;
53927;SDS011;39837;47.630;18.822;2023-10-31T15:55:05;0.80;;;0.80;;
53927;SDS011;39837;47.630;18.822;2023-10-31T15:57:50;1.20;;;1.20;;
53927;SDS011;39837;47.630;18.822;2023-10-31T16:00:34;1.13;;;1.02;;
53927;SDS011;39837;47.630;18.822;2023-10-31T16:03:17;0.85;;;0.85;;
53927;SDS011;39837;47.630;18.822;2023-10-31T16:06:01;0.95;;;0.95;;
53927;SDS011;39837;47.630;18.822;2023-10-31T16:08:47;0.75;;;0.75;;
53927;SDS011;39837;47.630;18.822;2023-10-31T16:11:31;1.50;;;1.42;;
53927;SDS011;39837;47.630;18.822;2023-10-31T16:14:15;0.50;;;0.50;;
53927;SDS011;39837;47.630;18.822;2023-10-31T16:17:05;1.08;;;1.08;;
53927;SDS011;39837;47.630;18.822;2023-10-31T16:19:49;1.20;;;1.20;;
53927;SDS011;39837;47.630;18.822;2023-10-31T16:22:33;1.23;;;1.23;;
53927;SDS011;39837;47.630;18.822;2023-10-31T16:25:18;1.30;;;1.30;;
53927;SDS011;39837;47.630;18.822;2023-10-31T16:28:02;1.13;;;1.13;;
53927;SDS011;39837;47.630;18.822;2023-10-31T16:30:46;1.40;;;1.40;;
53927;SDS011;39837;47.630;18.822;2023-10-31T16:33:30;1.58;;;1.52;;
53927;SDS011;39837;47.630;18.822;2023-10-31T16:36:15;1.73;;;1.65;;
53927;SDS011;39837;47.630;18.822;2023-10-31T16:39:00;1.10;;;1.10;;